createdAt,value
2023-03-03T00:00:54.934Z,63.47
2023-03-03T00:05:56.559Z,70.40
2023-03-03T00:11:00.911Z,71.85
2023-03-03T00:16:27.798Z,66.53
2023-03-03T00:21:32.519Z,67.95
2023-03-03T00:26:38.778Z,58.78
2023-03-03T00:31:40.486Z,62.85
2023-03-03T00:36:42.601Z,65.38
2023-03-03T00:41:44.335Z,72.53
2023-03-03T00:46:46.005Z,74.28
2023-03-03T00:51:47.675Z,70.88
2023-03-03T00:56:49.332Z,81.30
2023-03-03T01:01:51.613Z,79.47
2023-03-03T01:06:53.426Z,98.93
2023-03-03T01:11:56.225Z,71.82
2023-03-03T01:16:58.506Z,79.95
2023-03-03T01:22:00.207Z,94.72
2023-03-03T01:27:01.852Z,97.05
2023-03-03T01:32:03.706Z,84.65
2023-03-03T01:37:05.464Z,72.90
2023-03-03T01:42:08.118Z,75.22
2023-03-03T01:47:29.135Z,89.30
2023-03-03T01:52:36.263Z,68.10
2023-03-03T01:57:41.642Z,85.63
2023-03-03T02:02:43.985Z,79.32
2023-03-03T02:07:45.956Z,72.13
2023-03-03T02:12:53.464Z,75.93
2023-03-03T02:18:00.533Z,66.30
2023-03-03T02:23:17.612Z,50.65
2023-03-03T02:28:23.810Z,60.55
2023-03-03T02:33:26.094Z,50.30
2023-03-03T02:38:31.593Z,51.83
2023-03-03T02:43:39.787Z,72.85
2023-03-03T02:48:41.671Z,61.30
2023-03-03T02:53:44.664Z,61.08
2023-03-03T02:58:47.304Z,64.95
2023-03-03T03:03:49.266Z,68.55
2023-03-03T03:08:55.529Z,66.43
2023-03-03T03:13:57.421Z,65.68
2023-03-03T03:19:00.771Z,69.82
2023-03-03T03:24:03.728Z,62.00
2023-03-03T03:29:06.436Z,60.72
2023-03-03T03:34:08.651Z,55.63
2023-03-03T03:39:10.350Z,60.78
2023-03-03T03:44:16.838Z,54.47
2023-03-03T03:49:20.772Z,59.28
2023-03-03T03:54:24.047Z,64.10
2023-03-03T03:59:26.706Z,61.70
2023-03-03T04:04:29.135Z,60.35
2023-03-03T04:09:31.435Z,70.45
2023-03-03T04:14:33.553Z,66.00
2023-03-03T04:19:36.399Z,63.10
2023-03-03T04:24:40.848Z,64.85
2023-03-03T04:29:42.800Z,55.20
2023-03-03T04:34:47.347Z,61.63
2023-03-03T04:39:50.710Z,66.20
2023-03-03T04:44:52.489Z,60.75
2023-03-03T04:49:54.199Z,56.53
2023-03-03T04:54:56.723Z,54.92
2023-03-03T04:59:58.467Z,58.55
2023-03-03T05:05:00.462Z,62.45
2023-03-03T05:10:02.515Z,52.75
2023-03-03T05:15:05.383Z,59.40
2023-03-03T05:20:08.582Z,62.95
2023-03-03T05:25:11.192Z,51.30
2023-03-03T05:30:13.222Z,57.00
2023-03-03T05:35:14.843Z,55.83
2023-03-03T05:40:16.624Z,45.80
2023-03-03T05:45:21.623Z,50.90
2023-03-03T05:50:23.706Z,48.97
2023-03-03T05:55:25.697Z,52.38
2023-03-03T06:00:27.473Z,51.15
2023-03-03T06:05:29.140Z,51.00
2023-03-03T06:10:31.016Z,49.40
2023-03-03T06:15:36.140Z,56.90
2023-03-03T06:20:38.824Z,53.45
2023-03-03T06:25:40.779Z,52.25
2023-03-03T06:30:42.657Z,43.75
2023-03-03T06:35:44.423Z,45.70
2023-03-03T06:40:46.714Z,54.58
2023-03-03T06:45:48.477Z,43.95
2023-03-03T06:50:50.319Z,44.55
2023-03-03T06:55:52.458Z,52.95
2023-03-03T07:01:00.615Z,39.90
2023-03-03T07:06:09.715Z,44.33
2023-03-03T07:11:13.874Z,45.38
2023-03-03T07:16:16.793Z,46.47
2023-03-03T07:21:32.105Z,50.33
2023-03-03T07:26:34.010Z,36.30
2023-03-03T07:31:42.174Z,54.33
2023-03-03T07:36:44.850Z,37.50
2023-03-03T07:41:46.511Z,46.08
2023-03-03T07:46:49.227Z,48.53
2023-03-03T07:51:57.412Z,54.33
2023-03-03T07:57:06.180Z,39.35
2023-03-03T08:02:30.885Z,39.60
2023-03-03T08:07:35.760Z,31.25
2023-03-03T08:12:39.267Z,37.28
2023-03-03T08:17:42.822Z,37.83
2023-03-03T08:22:44.441Z,35.72
2023-03-03T08:27:46.089Z,36.17
2023-03-03T08:32:47.777Z,30.17
2023-03-03T08:37:49.592Z,32.67
2023-03-03T08:42:51.236Z,33.28
2023-03-03T08:47:52.970Z,29.65
2023-03-03T08:52:55.508Z,32.25
2023-03-03T08:57:57.493Z,31.63
2023-03-03T09:02:59.482Z,37.78
2023-03-03T09:08:01.568Z,38.53
2023-03-03T09:13:09.414Z,35.42
2023-03-03T09:18:18.539Z,30.00
2023-03-03T09:23:42.548Z,34.40
2023-03-03T09:28:44.173Z,24.25
2023-03-03T09:33:47.417Z,33.38
2023-03-03T09:38:49.161Z,28.02
2023-03-03T09:44:06.243Z,24.33
2023-03-03T09:49:29.689Z,18.77
2023-03-03T09:54:41.862Z,20.75
2023-03-03T09:59:55.054Z,18.65
2023-03-03T10:05:14.340Z,16.88
2023-03-03T10:10:50.169Z,18.85
2023-03-03T10:15:51.704Z,18.95
2023-03-03T10:21:05.916Z,17.63
2023-03-03T10:26:50.736Z,18.50
2023-03-03T10:32:09.476Z,11.77
2023-03-03T10:37:21.729Z,12.32
2023-03-03T10:42:41.174Z,14.32
2023-03-03T10:47:45.751Z,10.40
2023-03-03T10:52:55.264Z,8.93
2023-03-03T10:58:23.258Z,8.50
2023-03-03T11:03:49.954Z,12.68
2023-03-03T11:09:11.102Z,8.90
2023-03-03T11:15:00.973Z,9.70
2023-03-03T11:20:21.765Z,10.73
2023-03-03T11:25:32.177Z,9.80
2023-03-03T11:30:50.805Z,13.27
2023-03-03T11:35:58.443Z,13.18
2023-03-03T11:41:08.991Z,9.50
2023-03-03T11:46:17.471Z,13.65
2023-03-03T11:51:43.555Z,9.10
2023-03-03T11:56:46.537Z,10.00
2023-03-03T12:02:02.452Z,11.38
2023-03-03T12:07:35.072Z,6.90
2023-03-03T12:12:39.797Z,8.57
2023-03-03T12:18:09.427Z,9.88
2023-03-03T12:23:35.633Z,7.82
2023-03-03T12:28:59.540Z,9.10
2023-03-03T12:34:33.601Z,6.85
2023-03-03T12:40:08.224Z,6.78
2023-03-03T12:45:48.310Z,7.40
2023-03-03T12:51:47.266Z,6.85
2023-03-03T12:57:02.060Z,5.15
2023-03-03T13:02:35.698Z,14.73
2023-03-03T13:07:50.577Z,10.43
2023-03-03T13:13:01.845Z,7.85
2023-03-03T13:18:12.593Z,10.68
2023-03-03T13:23:46.570Z,7.78
2023-03-03T13:29:13.377Z,8.45
2023-03-03T13:34:41.641Z,7.38
2023-03-03T13:39:51.206Z,7.40
2023-03-03T13:44:55.663Z,8.15
2023-03-03T13:50:01.995Z,8.40
2023-03-03T13:55:07.281Z,10.13
2023-03-03T14:00:47.529Z,9.68
2023-03-03T14:05:51.459Z,12.20
2023-03-03T14:10:59.189Z,10.55
2023-03-03T14:16:03.598Z,10.80
2023-03-03T14:21:12.354Z,11.50
2023-03-03T14:26:14.235Z,11.25
2023-03-03T14:31:19.336Z,11.18
2023-03-03T14:36:30.189Z,9.95
2023-03-03T14:41:39.120Z,10.32
2023-03-03T14:46:49.527Z,9.73
2023-03-03T14:52:33.396Z,9.80
2023-03-03T14:57:46.698Z,11.48
2023-03-03T15:03:26.754Z,10.27
2023-03-03T15:08:44.448Z,12.65
2023-03-03T15:14:30.197Z,9.90
2023-03-03T15:19:49.483Z,14.30
2023-03-03T15:25:02.211Z,11.32
2023-03-03T15:30:22.231Z,11.60
2023-03-03T15:35:41.712Z,12.43
2023-03-03T15:41:15.068Z,15.68
2023-03-03T15:46:40.603Z,11.25
2023-03-03T15:52:23.016Z,13.85
2023-03-03T15:57:43.800Z,13.57
2023-03-03T16:03:46.923Z,15.93
2023-03-03T16:09:04.237Z,17.13
2023-03-03T16:14:44.435Z,17.77
2023-03-03T16:20:25.785Z,22.15
2023-03-03T16:25:40.057Z,26.85
2023-03-03T16:31:21.189Z,32.08
2023-03-03T16:37:01.790Z,24.05
2023-03-03T16:42:18.245Z,23.15
2023-03-03T16:47:54.375Z,29.88
2023-03-03T16:53:07.124Z,29.88
2023-03-03T16:58:26.122Z,29.95
2023-03-03T17:03:47.344Z,24.38
2023-03-03T17:09:32.535Z,33.22
2023-03-03T17:15:30.016Z,27.23
2023-03-03T17:20:54.804Z,26.02
2023-03-03T17:26:39.797Z,31.38
2023-03-03T17:32:19.109Z,28.95
2023-03-03T17:37:43.851Z,32.38
2023-03-03T17:42:58.206Z,33.55
2023-03-03T17:48:19.770Z,32.95
2023-03-03T17:53:51.696Z,37.58
2023-03-03T17:59:19.640Z,37.88
2023-03-03T18:04:33.549Z,36.00
2023-03-03T18:10:24.261Z,32.80
2023-03-03T18:16:01.994Z,37.35
2023-03-03T18:21:43.672Z,43.92
2023-03-03T18:26:45.749Z,39.53
2023-03-03T18:32:00.592Z,44.55
2023-03-03T18:37:02.220Z,41.33
2023-03-03T18:42:08.573Z,42.13
2023-03-03T18:47:10.775Z,40.50
2023-03-03T18:52:22.954Z,43.15
2023-03-03T18:57:25.047Z,43.65
2023-03-03T19:02:30.063Z,38.95
2023-03-03T19:07:40.887Z,39.25
2023-03-03T19:12:47.269Z,39.63
2023-03-03T19:17:49.978Z,36.97
2023-03-03T19:23:00.838Z,33.10
2023-03-03T19:28:14.753Z,39.10
2023-03-03T19:33:30.288Z,42.75
2023-03-03T19:38:32.326Z,44.35
2023-03-03T19:43:43.352Z,35.08
2023-03-03T19:48:53.288Z,36.83
2023-03-03T19:54:22.954Z,37.28
2023-03-03T19:59:38.626Z,40.17
2023-03-03T20:04:46.256Z,42.38
2023-03-03T20:10:15.755Z,39.58
2023-03-03T20:15:20.486Z,37.75
2023-03-03T20:20:45.208Z,38.90
2023-03-03T20:25:51.258Z,44.30
2023-03-03T20:31:05.125Z,38.85
2023-03-03T20:36:44.085Z,34.30
2023-03-03T20:42:05.649Z,39.13
2023-03-03T20:47:19.429Z,37.90
2023-03-03T20:52:37.334Z,35.50
2023-03-03T20:57:57.736Z,40.22
2023-03-03T21:03:19.761Z,44.00
2023-03-03T21:08:21.554Z,42.10
2023-03-03T21:13:32.167Z,49.03
2023-03-03T21:18:33.792Z,44.22
2023-03-03T21:23:35.533Z,43.50
2023-03-03T21:28:37.135Z,46.63
2023-03-03T21:33:41.911Z,47.35
2023-03-03T21:38:45.426Z,46.83
2023-03-03T21:43:49.300Z,48.95
2023-03-03T21:48:52.035Z,53.28
2023-03-03T21:53:53.687Z,49.13
2023-03-03T21:58:55.351Z,49.17
2023-03-03T22:03:56.957Z,50.70
2023-03-03T22:08:58.691Z,48.65
2023-03-03T22:14:00.438Z,51.38
2023-03-03T22:19:03.044Z,44.38
2023-03-03T22:24:05.648Z,47.47
2023-03-03T22:29:07.314Z,50.50
2023-03-03T22:34:08.962Z,49.47
2023-03-03T22:39:10.731Z,42.50
2023-03-03T22:44:12.433Z,46.67
2023-03-03T22:49:14.055Z,42.45
2023-03-03T22:54:15.664Z,42.05
2023-03-03T22:59:17.338Z,38.55
2023-03-03T23:04:18.982Z,36.30
2023-03-03T23:09:20.636Z,45.38
2023-03-03T23:14:22.237Z,36.60
2023-03-03T23:19:23.923Z,37.00
2023-03-03T23:24:25.522Z,40.92
2023-03-03T23:29:27.193Z,39.20
2023-03-03T23:34:28.850Z,40.35
2023-03-03T23:39:30.545Z,32.35
2023-03-03T23:44:32.174Z,34.72
2023-03-03T23:49:34.839Z,32.13
2023-03-03T23:54:36.438Z,33.25
2023-03-03T23:59:38.076Z,35.75
